sensor_id;sensor_type;location;lat;lon;timestamp;pressure;altitude;pressure_sealevel;temperature;humidity
39897;BME280;25567;48.276;14.242;2024-03-17T00:01:07;99188.25;;;8.86;76.50
39897;BME280;25567;48.276;14.242;2024-03-17T00:03:32;99189.03;;;8.90;76.18
39897;BME280;25567;48.276;14.242;2024-03-17T00:05:59;99185.66;;;8.89;75.89
39897;BME280;25567;48.276;14.242;2024-03-17T00:08:25;99189.97;;;8.87;75.99
39897;BME280;25567;48.276;14.242;2024-03-17T00:10:55;99184.06;;;8.82;76.09
39897;BME280;25567;48.276;14.242;2024-03-17T00:13:21;99174.75;;;8.81;76.04
39897;BME280;25567;48.276;14.242;2024-03-17T00:15:48;99176.41;;;8.82;75.97
39897;BME280;25567;48.276;14.242;2024-03-17T00:18:14;99184.88;;;8.84;75.81
39897;BME280;25567;48.276;14.242;2024-03-17T00:20:40;99196.13;;;8.74;76.07
39897;BME280;25567;48.276;14.242;2024-03-17T00:23:06;99197.00;;;8.71;76.20
39897;BME280;25567;48.276;14.242;2024-03-17T00:25:33;99195.25;;;8.75;76.20
39897;BME280;25567;48.276;14.242;2024-03-17T00:28:00;99201.28;;;8.72;76.23
39897;BME280;25567;48.276;14.242;2024-03-17T00:30:26;99197.00;;;8.73;75.94
39897;BME280;25567;48.276;14.242;2024-03-17T00:32:52;99191.09;;;8.71;75.91
39897;BME280;25567;48.276;14.242;2024-03-17T00:35:18;99181.72;;;8.70;75.34
39897;BME280;25567;48.276;14.242;2024-03-17T00:37:50;99186.06;;;8.65;75.63
39897;BME280;25567;48.276;14.242;2024-03-17T00:40:17;99193.78;;;8.62;75.87
39897;BME280;25567;48.276;14.242;2024-03-17T00:42:43;99192.09;;;8.61;75.67
39897;BME280;25567;48.276;14.242;2024-03-17T00:45:10;99196.28;;;8.65;75.33
39897;BME280;25567;48.276;14.242;2024-03-17T00:47:37;99212.56;;;8.58;75.42
39897;BME280;25567;48.276;14.242;2024-03-17T00:50:03;99207.63;;;8.49;75.92
39897;BME280;25567;48.276;14.242;2024-03-17T00:52:30;99214.34;;;8.53;74.92
39897;BME280;25567;48.276;14.242;2024-03-17T00:54:56;99221.19;;;8.51;75.54
39897;BME280;25567;48.276;14.242;2024-03-17T00:57:22;99217.88;;;8.46;75.35
39897;BME280;25567;48.276;14.242;2024-03-17T00:59:47;99232.34;;;8.44;75.34
39897;BME280;25567;48.276;14.242;2024-03-17T01:02:15;99236.72;;;8.37;75.39
39897;BME280;25567;48.276;14.242;2024-03-17T01:04:44;99227.34;;;8.39;75.26
39897;BME280;25567;48.276;14.242;2024-03-17T01:07:11;99211.13;;;8.42;75.02
39897;BME280;25567;48.276;14.242;2024-03-17T01:09:37;99211.06;;;8.46;74.89
39897;BME280;25567;48.276;14.242;2024-03-17T01:12:03;99210.16;;;8.49;74.56
39897;BME280;25567;48.276;14.242;2024-03-17T01:14:29;99205.94;;;8.48;74.60
39897;BME280;25567;48.276;14.242;2024-03-17T01:16:56;99204.25;;;8.47;74.52
39897;BME280;25567;48.276;14.242;2024-03-17T01:19:22;99209.44;;;8.42;74.90
39897;BME280;25567;48.276;14.242;2024-03-17T01:21:48;99204.41;;;8.36;75.25
39897;BME280;25567;48.276;14.242;2024-03-17T01:24:14;99218.09;;;8.31;75.32
39897;BME280;25567;48.276;14.242;2024-03-17T01:26:40;99212.19;;;8.29;75.51
39897;BME280;25567;48.276;14.242;2024-03-17T01:29:05;99227.56;;;8.24;75.22
39897;BME280;25567;48.276;14.242;2024-03-17T01:31:31;99227.38;;;8.35;74.70
39897;BME280;25567;48.276;14.242;2024-03-17T01:33:57;99208.78;;;8.30;74.82
39897;BME280;25567;48.276;14.242;2024-03-17T01:36:23;99218.19;;;8.23;74.77
39897;BME280;25567;48.276;14.242;2024-03-17T01:38:49;99223.31;;;8.22;74.87
39897;BME280;25567;48.276;14.242;2024-03-17T01:41:15;99225.94;;;8.17;74.77
39897;BME280;25567;48.276;14.242;2024-03-17T01:43:41;99227.69;;;8.14;74.81
39897;BME280;25567;48.276;14.242;2024-03-17T01:46:12;99226.03;;;8.11;75.00
39897;BME280;25567;48.276;14.242;2024-03-17T01:48:40;99225.94;;;8.16;75.01
39897;BME280;25567;48.276;14.242;2024-03-17T01:51:07;99220.94;;;8.11;75.24
39897;BME280;25567;48.276;14.242;2024-03-17T01:53:35;99229.50;;;8.06;75.42
39897;BME280;25567;48.276;14.242;2024-03-17T01:56:01;99224.41;;;8.06;75.45
39897;BME280;25567;48.276;14.242;2024-03-17T01:58:30;99229.41;;;8.12;75.23
39897;BME280;25567;48.276;14.242;2024-03-17T02:00:56;99226.88;;;8.10;75.36
39897;BME280;25567;48.276;14.242;2024-03-17T02:03:22;99224.34;;;8.09;75.56
39897;BME280;25567;48.276;14.242;2024-03-17T02:05:48;99222.69;;;8.06;75.65
39897;BME280;25567;48.276;14.242;2024-03-17T02:08:14;99226.91;;;8.09;75.57
39897;BME280;25567;48.276;14.242;2024-03-17T02:10:40;99222.59;;;8.12;75.43
39897;BME280;25567;48.276;14.242;2024-03-17T02:13:05;99222.63;;;8.11;75.30
39897;BME280;25567;48.276;14.242;2024-03-17T02:15:32;99221.84;;;8.06;75.97
39897;BME280;25567;48.276;14.242;2024-03-17T02:17:58;99219.44;;;7.97;76.05
39897;BME280;25567;48.276;14.242;2024-03-17T02:20:24;99222.91;;;7.91;76.14
39897;BME280;25567;48.276;14.242;2024-03-17T02:23:13;99219.59;;;7.86;76.24
39897;BME280;25567;48.276;14.242;2024-03-17T02:25:38;99226.41;;;7.84;76.40
39897;BME280;25567;48.276;14.242;2024-03-17T02:28:05;99226.41;;;7.83;76.51
39897;BME280;25567;48.276;14.242;2024-03-17T02:30:30;99230.66;;;7.82;76.75
39897;BME280;25567;48.276;14.242;2024-03-17T02:32:56;99229.00;;;7.81;76.76
39897;BME280;25567;48.276;14.242;2024-03-17T02:35:24;99229.88;;;7.79;76.77
39897;BME280;25567;48.276;14.242;2024-03-17T02:37:50;99225.63;;;7.76;76.80
39897;BME280;25567;48.276;14.242;2024-03-17T02:40:16;99232.47;;;7.76;76.66
39897;BME280;25567;48.276;14.242;2024-03-17T02:42:42;99233.31;;;7.74;76.62
39897;BME280;25567;48.276;14.242;2024-03-17T02:45:11;99237.59;;;7.74;76.60
39897;BME280;25567;48.276;14.242;2024-03-17T02:47:40;99217.19;;;7.72;76.62
39897;BME280;25567;48.276;14.242;2024-03-17T02:50:07;99216.38;;;7.69;76.70
39897;BME280;25567;48.276;14.242;2024-03-17T02:52:33;99225.78;;;7.65;76.75
39897;BME280;25567;48.276;14.242;2024-03-17T02:54:59;99228.31;;;7.65;76.68
39897;BME280;25567;48.276;14.242;2024-03-17T02:57:25;99229.25;;;7.61;76.64
39897;BME280;25567;48.276;14.242;2024-03-17T03:00:00;99227.63;;;7.56;76.92
39897;BME280;25567;48.276;14.242;2024-03-17T03:02:29;99236.00;;;7.62;76.61
39897;BME280;25567;48.276;14.242;2024-03-17T03:04:55;99224.16;;;7.60;76.83
39897;BME280;25567;48.276;14.242;2024-03-17T03:07:21;99229.34;;;7.52;76.63
39897;BME280;25567;48.276;14.242;2024-03-17T03:09:46;99224.22;;;7.55;76.65
39897;BME280;25567;48.276;14.242;2024-03-17T03:12:12;99226.84;;;7.49;76.67
39897;BME280;25567;48.276;14.242;2024-03-17T03:14:38;99226.88;;;7.45;76.85
39897;BME280;25567;48.276;14.242;2024-03-17T03:17:04;99226.06;;;7.41;77.00
39897;BME280;25567;48.276;14.242;2024-03-17T03:19:30;99215.94;;;7.35;77.14
39897;BME280;25567;48.276;14.242;2024-03-17T03:21:56;99229.59;;;7.31;77.19
39897;BME280;25567;48.276;14.242;2024-03-17T03:24:21;99233.88;;;7.28;77.36
39897;BME280;25567;48.276;14.242;2024-03-17T03:26:47;99242.38;;;7.25;77.58
39897;BME280;25567;48.276;14.242;2024-03-17T03:29:14;99241.53;;;7.26;77.21
39897;BME280;25567;48.276;14.242;2024-03-17T03:31:42;99239.03;;;7.22;77.22
39897;BME280;25567;48.276;14.242;2024-03-17T03:34:08;99243.28;;;7.23;77.15
39897;BME280;25567;48.276;14.242;2024-03-17T03:36:38;99240.69;;;7.26;77.31
39897;BME280;25567;48.276;14.242;2024-03-17T03:39:04;99244.06;;;7.25;77.34
39897;BME280;25567;48.276;14.242;2024-03-17T03:41:30;99241.59;;;7.20;77.40
39897;BME280;25567;48.276;14.242;2024-03-17T03:43:57;99240.75;;;7.18;77.66
39897;BME280;25567;48.276;14.242;2024-03-17T03:46:23;99243.34;;;7.17;77.63
39897;BME280;25567;48.276;14.242;2024-03-17T03:48:48;99241.66;;;7.16;77.77
39897;BME280;25567;48.276;14.242;2024-03-17T03:51:14;99235.72;;;7.14;77.76
39897;BME280;25567;48.276;14.242;2024-03-17T03:53:40;99240.00;;;7.12;77.69
39897;BME280;25567;48.276;14.242;2024-03-17T03:56:08;99240.00;;;7.10;78.08
39897;BME280;25567;48.276;14.242;2024-03-17T03:58:34;99230.66;;;7.11;77.87
39897;BME280;25567;48.276;14.242;2024-03-17T04:01:10;99242.56;;;7.10;78.10
39897;BME280;25567;48.276;14.242;2024-03-17T04:03:47;99232.41;;;7.09;78.29
39897;BME280;25567;48.276;14.242;2024-03-17T04:06:13;99231.53;;;7.08;78.26
39897;BME280;25567;48.276;14.242;2024-03-17T04:08:39;99233.22;;;7.08;78.54
39897;BME280;25567;48.276;14.242;2024-03-17T04:11:08;99234.09;;;7.08;78.45
39897;BME280;25567;48.276;14.242;2024-03-17T04:13:34;99225.63;;;7.06;78.37
39897;BME280;25567;48.276;14.242;2024-03-17T04:16:06;99225.59;;;7.08;78.72
39897;BME280;25567;48.276;14.242;2024-03-17T04:18:32;99229.81;;;7.10;78.58
39897;BME280;25567;48.276;14.242;2024-03-17T04:21:04;99230.72;;;7.05;78.93
39897;BME280;25567;48.276;14.242;2024-03-17T04:23:30;99238.38;;;7.00;79.19
39897;BME280;25567;48.276;14.242;2024-03-17T04:26:00;99234.16;;;7.01;79.03
39897;BME280;25567;48.276;14.242;2024-03-17T04:28:26;99237.53;;;7.03;78.90
39897;BME280;25567;48.276;14.242;2024-03-17T04:30:52;99240.06;;;7.04;78.54
39897;BME280;25567;48.276;14.242;2024-03-17T04:33:18;99233.28;;;7.05;78.54
39897;BME280;25567;48.276;14.242;2024-03-17T04:35:44;99239.22;;;7.02;78.53
39897;BME280;25567;48.276;14.242;2024-03-17T04:38:10;99236.66;;;7.04;78.91
39897;BME280;25567;48.276;14.242;2024-03-17T04:40:42;99240.88;;;7.06;78.54
39897;BME280;25567;48.276;14.242;2024-03-17T04:43:08;99233.28;;;7.03;78.38
39897;BME280;25567;48.276;14.242;2024-03-17T04:45:34;99234.13;;;7.05;79.01
39897;BME280;25567;48.276;14.242;2024-03-17T04:48:00;99236.69;;;7.02;78.76
39897;BME280;25567;48.276;14.242;2024-03-17T04:50:26;99238.47;;;6.94;78.75
39897;BME280;25567;48.276;14.242;2024-03-17T04:52:58;99242.69;;;6.95;78.90
39897;BME280;25567;48.276;14.242;2024-03-17T04:55:24;99250.31;;;6.95;78.87
39897;BME280;25567;48.276;14.242;2024-03-17T04:57:50;99244.41;;;6.93;78.79
39897;BME280;25567;48.276;14.242;2024-03-17T05:00:16;99247.81;;;6.92;78.77
39897;BME280;25567;48.276;14.242;2024-03-17T05:02:44;99246.97;;;6.90;78.41
39897;BME280;25567;48.276;14.242;2024-03-17T05:05:10;99251.25;;;6.88;78.90
39897;BME280;25567;48.276;14.242;2024-03-17T05:07:36;99245.34;;;6.83;78.91
39897;BME280;25567;48.276;14.242;2024-03-17T05:10:03;99253.00;;;6.82;78.67
39897;BME280;25567;48.276;14.242;2024-03-17T05:12:29;99250.47;;;6.80;78.92
39897;BME280;25567;48.276;14.242;2024-03-17T05:14:55;99253.88;;;6.78;78.65
39897;BME280;25567;48.276;14.242;2024-03-17T05:17:21;99248.81;;;6.76;79.06
39897;BME280;25567;48.276;14.242;2024-03-17T05:19:46;99243.75;;;6.73;79.08
39897;BME280;25567;48.276;14.242;2024-03-17T05:22:12;99245.47;;;6.71;79.20
39897;BME280;25567;48.276;14.242;2024-03-17T05:24:38;99246.34;;;6.67;79.29
39897;BME280;25567;48.276;14.242;2024-03-17T05:27:04;99246.38;;;6.64;79.87
39897;BME280;25567;48.276;14.242;2024-03-17T05:29:29;99254.84;;;6.63;79.85
39897;BME280;25567;48.276;14.242;2024-03-17T05:31:56;99257.41;;;6.65;79.87
39897;BME280;25567;48.276;14.242;2024-03-17T05:34:22;99257.34;;;6.69;79.26
39897;BME280;25567;48.276;14.242;2024-03-17T05:36:50;99267.53;;;6.69;79.44
39897;BME280;25567;48.276;14.242;2024-03-17T05:39:16;99267.53;;;6.68;79.90
39897;BME280;25567;48.276;14.242;2024-03-17T05:41:43;99270.09;;;6.66;79.45
39897;BME280;25567;48.276;14.242;2024-03-17T05:44:09;99272.66;;;6.66;79.56
39897;BME280;25567;48.276;14.242;2024-03-17T05:46:35;99276.03;;;6.65;79.46
39897;BME280;25567;48.276;14.242;2024-03-17T05:49:01;99281.09;;;6.65;79.85
39897;BME280;25567;48.276;14.242;2024-03-17T05:51:29;99281.09;;;6.68;79.54
39897;BME280;25567;48.276;14.242;2024-03-17T05:53:54;99287.03;;;6.69;79.55
39897;BME280;25567;48.276;14.242;2024-03-17T05:56:21;99284.47;;;6.69;79.55
39897;BME280;25567;48.276;14.242;2024-03-17T05:58:48;99296.31;;;6.74;79.90
39897;BME280;25567;48.276;14.242;2024-03-17T06:01:14;99303.09;;;6.75;79.84
39897;BME280;25567;48.276;14.242;2024-03-17T06:03:40;99299.63;;;6.81;79.29
39897;BME280;25567;48.276;14.242;2024-03-17T06:06:07;99297.09;;;6.84;79.34
39897;BME280;25567;48.276;14.242;2024-03-17T06:08:35;99301.31;;;6.83;79.12
39897;BME280;25567;48.276;14.242;2024-03-17T06:11:02;99297.06;;;6.87;79.41
39897;BME280;25567;48.276;14.242;2024-03-17T06:13:28;99291.06;;;6.94;79.84
39897;BME280;25567;48.276;14.242;2024-03-17T06:15:54;99291.03;;;6.95;80.06
39897;BME280;25567;48.276;14.242;2024-03-17T06:18:20;99293.56;;;6.97;79.70
39897;BME280;25567;48.276;14.242;2024-03-17T06:20:47;99286.75;;;7.00;80.13
39897;BME280;25567;48.276;14.242;2024-03-17T06:23:14;99281.69;;;7.02;79.71
39897;BME280;25567;48.276;14.242;2024-03-17T06:25:44;99285.00;;;7.08;79.76
39897;BME280;25567;48.276;14.242;2024-03-17T06:28:12;99284.97;;;7.11;79.42
39897;BME280;25567;48.276;14.242;2024-03-17T06:30:45;99284.13;;;7.09;78.86
39897;BME280;25567;48.276;14.242;2024-03-17T06:33:15;99286.56;;;7.23;78.62
39897;BME280;25567;48.276;14.242;2024-03-17T06:35:41;99283.81;;;7.39;77.09
39897;BME280;25567;48.276;14.242;2024-03-17T06:38:07;99287.19;;;7.41;77.36
39897;BME280;25567;48.276;14.242;2024-03-17T06:40:39;99282.88;;;7.49;76.44
39897;BME280;25567;48.276;14.242;2024-03-17T06:43:05;99288.69;;;7.60;75.77
39897;BME280;25567;48.276;14.242;2024-03-17T06:45:32;99292.94;;;7.58;75.72
39897;BME280;25567;48.276;14.242;2024-03-17T06:47:57;99296.38;;;7.57;75.61
39897;BME280;25567;48.276;14.242;2024-03-17T06:50:23;99300.63;;;7.55;75.75
39897;BME280;25567;48.276;14.242;2024-03-17T06:52:49;99309.88;;;7.67;75.87
39897;BME280;25567;48.276;14.242;2024-03-17T06:55:16;99309.09;;;7.57;75.92
39897;BME280;25567;48.276;14.242;2024-03-17T06:57:42;99304.66;;;7.78;75.92
39897;BME280;25567;48.276;14.242;2024-03-17T07:00:12;99313.03;;;7.86;75.47
39897;BME280;25567;48.276;14.242;2024-03-17T07:02:49;99320.63;;;7.92;73.56
39897;BME280;25567;48.276;14.242;2024-03-17T07:05:15;99319.91;;;7.79;72.71
39897;BME280;25567;48.276;14.242;2024-03-17T07:07:42;99314.63;;;7.93;73.49
39897;BME280;25567;48.276;14.242;2024-03-17T07:10:08;99310.31;;;7.98;73.53
39897;BME280;25567;48.276;14.242;2024-03-17T07:12:34;99308.53;;;8.06;73.38
39897;BME280;25567;48.276;14.242;2024-03-17T07:15:00;99311.03;;;8.09;72.43
39897;BME280;25567;48.276;14.242;2024-03-17T07:17:26;99306.00;;;8.03;71.59
39897;BME280;25567;48.276;14.242;2024-03-17T07:19:51;99299.94;;;8.13;72.04
39897;BME280;25567;48.276;14.242;2024-03-17T07:22:17;99306.66;;;8.20;71.77
39897;BME280;25567;48.276;14.242;2024-03-17T07:24:43;99305.00;;;8.16;71.23
39897;BME280;25567;48.276;14.242;2024-03-17T07:27:10;99303.69;;;8.51;72.54
39897;BME280;25567;48.276;14.242;2024-03-17T07:29:39;99300.41;;;8.42;71.02
39897;BME280;25567;48.276;14.242;2024-03-17T07:32:05;99308.03;;;8.45;69.92
39897;BME280;25567;48.276;14.242;2024-03-17T07:34:31;99309.75;;;8.44;70.15
39897;BME280;25567;48.276;14.242;2024-03-17T07:36:58;99305.34;;;8.55;69.03
39897;BME280;25567;48.276;14.242;2024-03-17T07:39:32;99301.97;;;8.53;68.82
39897;BME280;25567;48.276;14.242;2024-03-17T07:41:59;99308.28;;;8.83;70.53
39897;BME280;25567;48.276;14.242;2024-03-17T07:44:25;99310.09;;;8.78;69.26
39897;BME280;25567;48.276;14.242;2024-03-17T07:46:51;99312.66;;;8.75;68.79
39897;BME280;25567;48.276;14.242;2024-03-17T07:49:17;99313.69;;;8.65;68.01
39897;BME280;25567;48.276;14.242;2024-03-17T07:51:42;99310.09;;;8.75;68.87
39897;BME280;25567;48.276;14.242;2024-03-17T07:54:09;99310.06;;;8.79;67.58
39897;BME280;25567;48.276;14.242;2024-03-17T07:56:35;99310.91;;;8.80;66.16
39897;BME280;25567;48.276;14.242;2024-03-17T07:59:00;99305.47;;;8.98;66.54
39897;BME280;25567;48.276;14.242;2024-03-17T08:01:26;99314.16;;;8.88;66.47
39897;BME280;25567;48.276;14.242;2024-03-17T08:03:52;99310.47;;;9.06;67.58
39897;BME280;25567;48.276;14.242;2024-03-17T08:06:21;99308.41;;;9.27;65.83
39897;BME280;25567;48.276;14.242;2024-03-17T08:08:47;99306.94;;;9.13;62.99
39897;BME280;25567;48.276;14.242;2024-03-17T08:11:13;99303.53;;;9.12;62.35
39897;BME280;25567;48.276;14.242;2024-03-17T08:13:38;99300.25;;;9.06;61.73
39897;BME280;25567;48.276;14.242;2024-03-17T08:16:06;99308.56;;;9.18;62.67
39897;BME280;25567;48.276;14.242;2024-03-17T08:18:33;99295.91;;;9.58;63.03
39897;BME280;25567;48.276;14.242;2024-03-17T08:21:00;99297.78;;;9.48;60.69
39897;BME280;25567;48.276;14.242;2024-03-17T08:23:26;99299.03;;;9.72;61.74
39897;BME280;25567;48.276;14.242;2024-03-17T08:25:57;99297.38;;;9.69;61.35
39897;BME280;25567;48.276;14.242;2024-03-17T08:28:24;99291.97;;;9.84;57.90
39897;BME280;25567;48.276;14.242;2024-03-17T08:30:54;99299.16;;;10.09;59.90
39897;BME280;25567;48.276;14.242;2024-03-17T08:33:20;99293.47;;;9.95;55.24
39897;BME280;25567;48.276;14.242;2024-03-17T08:35:56;99301.78;;;10.06;54.50
39897;BME280;25567;48.276;14.242;2024-03-17T08:38:23;99298.38;;;10.05;55.53
39897;BME280;25567;48.276;14.242;2024-03-17T08:40:51;99293.13;;;10.13;54.98
39897;BME280;25567;48.276;14.242;2024-03-17T08:43:17;99290.56;;;10.13;56.00
39897;BME280;25567;48.276;14.242;2024-03-17T08:45:44;99281.06;;;10.18;53.39
39897;BME280;25567;48.276;14.242;2024-03-17T08:48:11;99274.25;;;10.55;58.18
39897;BME280;25567;48.276;14.242;2024-03-17T08:50:37;99284.81;;;10.40;56.57
39897;BME280;25567;48.276;14.242;2024-03-17T08:53:03;99275.06;;;10.19;54.64
39897;BME280;25567;48.276;14.242;2024-03-17T08:55:28;99274.06;;;10.26;54.84
39897;BME280;25567;48.276;14.242;2024-03-17T08:57:54;99287.09;;;10.52;56.69
39897;BME280;25567;48.276;14.242;2024-03-17T09:00:20;99280.53;;;10.42;54.49
39897;BME280;25567;48.276;14.242;2024-03-17T09:02:45;99283.16;;;10.39;52.72
39897;BME280;25567;48.276;14.242;2024-03-17T09:05:11;99279.47;;;10.50;55.24
39897;BME280;25567;48.276;14.242;2024-03-17T09:07:40;99279.59;;;10.46;55.41
39897;BME280;25567;48.276;14.242;2024-03-17T09:10:06;99278.53;;;10.54;54.91
39897;BME280;25567;48.276;14.242;2024-03-17T09:12:31;99275.97;;;10.54;55.59
39897;BME280;25567;48.276;14.242;2024-03-17T09:14:57;99277.75;;;10.51;56.28
39897;BME280;25567;48.276;14.242;2024-03-17T09:17:23;99267.25;;;10.61;55.72
39897;BME280;25567;48.276;14.242;2024-03-17T09:19:48;99267.34;;;10.58;56.34
39897;BME280;25567;48.276;14.242;2024-03-17T09:22:14;99267.41;;;10.55;56.84
39897;BME280;25567;48.276;14.242;2024-03-17T09:24:40;99262.88;;;10.66;56.68
39897;BME280;25567;48.276;14.242;2024-03-17T09:27:06;99262.47;;;10.83;56.47
39897;BME280;25567;48.276;14.242;2024-03-17T09:29:32;99268.19;;;10.94;55.91
39897;BME280;25567;48.276;14.242;2024-03-17T09:32:00;99251.66;;;11.06;54.63
39897;BME280;25567;48.276;14.242;2024-03-17T09:34:26;99251.47;;;11.13;56.76
39897;BME280;25567;48.276;14.242;2024-03-17T09:36:52;99249.25;;;11.32;55.22
39897;BME280;25567;48.276;14.242;2024-03-17T09:39:18;99243.31;;;11.31;53.84
39897;BME280;25567;48.276;14.242;2024-03-17T09:41:46;99251.47;;;11.44;56.63
39897;BME280;25567;48.276;14.242;2024-03-17T09:44:12;99247.44;;;11.35;53.41
39897;BME280;25567;48.276;14.242;2024-03-17T09:46:41;99244.81;;;11.38;57.90
39897;BME280;25567;48.276;14.242;2024-03-17T09:49:16;99243.59;;;11.51;56.33
39897;BME280;25567;48.276;14.242;2024-03-17T09:51:42;99234.75;;;11.61;55.11
39897;BME280;25567;48.276;14.242;2024-03-17T09:54:17;99228.75;;;11.62;55.37
39897;BME280;25567;48.276;14.242;2024-03-17T09:56:45;99237.19;;;11.67;54.57
39897;BME280;25567;48.276;14.242;2024-03-17T09:59:11;99228.00;;;11.89;53.33
39897;BME280;25567;48.276;14.242;2024-03-17T10:01:37;99234.63;;;11.96;53.02
39897;BME280;25567;48.276;14.242;2024-03-17T10:04:03;99230.56;;;11.88;51.71
39897;BME280;25567;48.276;14.242;2024-03-17T10:06:45;99229.22;;;11.76;52.10
39897;BME280;25567;48.276;14.242;2024-03-17T10:09:16;99226.28;;;11.58;52.18
39897;BME280;25567;48.276;14.242;2024-03-17T10:11:47;99231.69;;;11.79;52.97
39897;BME280;25567;48.276;14.242;2024-03-17T10:14:16;99231.00;;;12.02;49.91
39897;BME280;25567;48.276;14.242;2024-03-17T10:16:43;99232.22;;;11.90;52.06
39897;BME280;25567;48.276;14.242;2024-03-17T10:19:25;99228.69;;;11.94;52.31
39897;BME280;25567;48.276;14.242;2024-03-17T10:21:59;99224.97;;;12.04;53.66
39897;BME280;25567;48.276;14.242;2024-03-17T10:24:27;99224.06;;;12.05;51.47
39897;BME280;25567;48.276;14.242;2024-03-17T10:26:58;99226.72;;;12.02;51.37
39897;BME280;25567;48.276;14.242;2024-03-17T10:31:57;99219.44;;;12.17;53.92
39897;BME280;25567;48.276;14.242;2024-03-17T10:34:26;99233.88;;;12.21;53.86
39897;BME280;25567;48.276;14.242;2024-03-17T10:36:52;99215.56;;;12.05;52.57
39897;BME280;25567;48.276;14.242;2024-03-17T10:39:30;99222.34;;;11.78;53.65
39897;BME280;25567;48.276;14.242;2024-03-17T10:42:07;99223.94;;;11.82;52.63
39897;BME280;25567;48.276;14.242;2024-03-17T10:44:37;99217.47;;;11.69;52.90
39897;BME280;25567;48.276;14.242;2024-03-17T10:47:05;99224.78;;;11.81;53.68
39897;BME280;25567;48.276;14.242;2024-03-17T10:49:37;99220.63;;;11.79;53.87
39897;BME280;25567;48.276;14.242;2024-03-17T10:52:06;99213.31;;;11.64;53.98
39897;BME280;25567;48.276;14.242;2024-03-17T10:54:33;99217.78;;;11.57;54.04
39897;BME280;25567;48.276;14.242;2024-03-17T10:57:18;99215.03;;;11.63;52.94
39897;BME280;25567;48.276;14.242;2024-03-17T10:59:52;99212.66;;;11.86;53.56
39897;BME280;25567;48.276;14.242;2024-03-17T11:02:23;99208.72;;;12.32;53.40
39897;BME280;25567;48.276;14.242;2024-03-17T11:04:54;99206.56;;;12.20;51.41
39897;BME280;25567;48.276;14.242;2024-03-17T11:07:21;99202.38;;;12.16;53.17
39897;BME280;25567;48.276;14.242;2024-03-17T11:09:48;99202.28;;;12.19;52.96
39897;BME280;25567;48.276;14.242;2024-03-17T11:12:46;99195.09;;;12.30;55.11
39897;BME280;25567;48.276;14.242;2024-03-17T11:20:42;99175.03;;;12.67;52.14
39897;BME280;25567;48.276;14.242;2024-03-17T11:23:09;99181.06;;;12.66;52.71
39897;BME280;25567;48.276;14.242;2024-03-17T11:28:01;99173.03;;;12.50;50.86
39897;BME280;25567;48.276;14.242;2024-03-17T11:38:59;99163.00;;;12.43;51.72
39897;BME280;25567;48.276;14.242;2024-03-17T11:41:45;99157.84;;;12.44;53.40
39897;BME280;25567;48.276;14.242;2024-03-17T11:46:58;99152.88;;;12.38;50.45
39897;BME280;25567;48.276;14.242;2024-03-17T11:49:29;99141.47;;;12.47;51.11
39897;BME280;25567;48.276;14.242;2024-03-17T11:51:58;99143.06;;;12.51;52.37
39897;BME280;25567;48.276;14.242;2024-03-17T11:54:29;99143.38;;;12.66;52.71
39897;BME280;25567;48.276;14.242;2024-03-17T11:57:00;99140.09;;;13.12;51.21
39897;BME280;25567;48.276;14.242;2024-03-17T11:59:26;99134.47;;;13.26;49.80
39897;BME280;25567;48.276;14.242;2024-03-17T12:01:52;99128.03;;;13.37;49.22
39897;BME280;25567;48.276;14.242;2024-03-17T12:04:20;99125.56;;;13.34;53.50
39897;BME280;25567;48.276;14.242;2024-03-17T12:06:47;99126.13;;;13.42;50.06
39897;BME280;25567;48.276;14.242;2024-03-17T12:09:24;99107.28;;;13.42;49.24
39897;BME280;25567;48.276;14.242;2024-03-17T12:12:08;99108.44;;;13.56;47.35
39897;BME280;25567;48.276;14.242;2024-03-17T12:14:35;99097.56;;;13.50;48.03
39897;BME280;25567;48.276;14.242;2024-03-17T12:17:04;99102.22;;;13.62;47.66
39897;BME280;25567;48.276;14.242;2024-03-17T12:19:30;99098.28;;;13.53;47.37
39897;BME280;25567;48.276;14.242;2024-03-17T12:21:58;99091.91;;;13.40;47.61
39897;BME280;25567;48.276;14.242;2024-03-17T12:24:30;99092.03;;;13.37;49.20
39897;BME280;25567;48.276;14.242;2024-03-17T12:26:57;99081.88;;;13.34;48.29
39897;BME280;25567;48.276;14.242;2024-03-17T12:29:31;99083.25;;;13.20;48.51
39897;BME280;25567;48.276;14.242;2024-03-17T12:32:25;99076.81;;;13.31;49.21
39897;BME280;25567;48.276;14.242;2024-03-17T12:34:57;99082.63;;;13.59;49.53
39897;BME280;25567;48.276;14.242;2024-03-17T12:37:25;99052.13;;;13.92;50.00
39897;BME280;25567;48.276;14.242;2024-03-17T12:40:01;99070.88;;;13.95;48.53
39897;BME280;25567;48.276;14.242;2024-03-17T12:42:27;99070.28;;;13.67;47.40
39897;BME280;25567;48.276;14.242;2024-03-17T12:44:54;99060.00;;;13.67;47.38
39897;BME280;25567;48.276;14.242;2024-03-17T12:47:27;99054.00;;;13.67;47.34
39897;BME280;25567;48.276;14.242;2024-03-17T12:49:58;99052.22;;;13.90;51.65
39897;BME280;25567;48.276;14.242;2024-03-17T12:52:29;99040.13;;;13.92;48.05
39897;BME280;25567;48.276;14.242;2024-03-17T12:55:08;99051.94;;;13.96;47.40
39897;BME280;25567;48.276;14.242;2024-03-17T12:58:13;99046.31;;;14.08;46.32
39897;BME280;25567;48.276;14.242;2024-03-17T13:01:05;99033.03;;;13.97;46.98
39897;BME280;25567;48.276;14.242;2024-03-17T13:03:35;99035.78;;;13.93;46.43
39897;BME280;25567;48.276;14.242;2024-03-17T13:06:02;99025.75;;;13.87;47.35
39897;BME280;25567;48.276;14.242;2024-03-17T13:08:29;99026.19;;;13.76;46.50
39897;BME280;25567;48.276;14.242;2024-03-17T13:10:58;99024.56;;;13.74;47.38
39897;BME280;25567;48.276;14.242;2024-03-17T13:13:24;99021.56;;;13.84;46.61
39897;BME280;25567;48.276;14.242;2024-03-17T13:15:50;99016.69;;;13.78;47.15
39897;BME280;25567;48.276;14.242;2024-03-17T13:18:18;99016.06;;;13.72;48.38
39897;BME280;25567;48.276;14.242;2024-03-17T13:20:45;99012.63;;;13.73;46.96
39897;BME280;25567;48.276;14.242;2024-03-17T13:23:12;99008.31;;;13.73;47.98